createdAt,value
2023-01-28T00:00:13.316Z,9.23
2023-01-28T00:02:42.696Z,9.18
2023-01-28T00:05:14.642Z,8.90
2023-01-28T00:07:44.158Z,10.27
2023-01-28T00:10:13.187Z,11.23
2023-01-28T00:12:42.244Z,11.60
2023-01-28T00:15:16.468Z,10.50
2023-01-28T00:17:52.165Z,10.85
2023-01-28T00:20:22.617Z,12.55
2023-01-28T00:22:52.308Z,17.05
2023-01-28T00:25:21.384Z,19.80
2023-01-28T00:27:51.410Z,19.25
2023-01-28T00:30:20.880Z,17.30
2023-01-28T00:32:50.038Z,14.77
2023-01-28T00:35:19.087Z,15.18
2023-01-28T00:37:49.696Z,14.70
2023-01-28T00:40:19.170Z,15.38
2023-01-28T00:42:48.368Z,15.68
2023-01-28T00:45:17.695Z,19.75
2023-01-28T00:47:48.408Z,19.92
2023-01-28T00:50:18.060Z,22.80
2023-01-28T00:52:47.206Z,27.42
2023-01-28T00:55:17.899Z,36.60
2023-01-28T00:57:47.031Z,33.55
2023-01-28T01:00:16.805Z,23.05
2023-01-28T01:02:45.874Z,20.58
2023-01-28T01:05:15.434Z,19.15
2023-01-28T01:07:44.981Z,17.13
2023-01-28T01:10:16.160Z,15.75
2023-01-28T01:12:47.828Z,15.02
2023-01-28T01:15:17.826Z,12.40
2023-01-28T01:17:49.100Z,10.90
2023-01-28T01:20:20.835Z,8.07
2023-01-28T01:22:50.110Z,13.38
2023-01-28T01:25:20.303Z,10.60
2023-01-28T01:27:51.818Z,11.50
2023-01-28T01:30:21.459Z,10.30
2023-01-28T01:32:50.611Z,8.02
2023-01-28T01:35:19.789Z,6.60
2023-01-28T01:37:48.991Z,6.40
2023-01-28T01:40:18.595Z,5.13
2023-01-28T01:42:47.640Z,5.95
2023-01-28T01:45:18.800Z,7.07
2023-01-28T01:50:24.396Z,12.63
2023-01-28T01:52:57.308Z,9.13
2023-01-28T01:55:29.130Z,8.85
2023-01-28T01:58:01.443Z,8.35
2023-01-28T02:00:31.950Z,7.18
2023-01-28T02:03:01.685Z,6.18
2023-01-28T02:05:30.727Z,5.93
2023-01-28T02:08:21.082Z,7.70
2023-01-28T02:10:54.139Z,7.10
2023-01-28T02:13:26.906Z,5.63
2023-01-28T02:15:59.423Z,7.28
2023-01-28T02:18:28.791Z,6.57
2023-01-28T02:21:18.854Z,6.20
2023-01-28T02:24:04.136Z,6.35
2023-01-28T02:26:50.915Z,6.18
2023-01-28T02:29:28.798Z,6.43
2023-01-28T02:32:05.314Z,8.52
2023-01-28T02:34:41.924Z,6.28
2023-01-28T02:37:16.355Z,5.00
2023-01-28T02:39:50.390Z,5.00
2023-01-28T02:42:24.749Z,4.57
2023-01-28T02:44:55.222Z,4.80
2023-01-28T02:47:42.286Z,4.53
2023-01-28T02:50:14.232Z,3.05
2023-01-28T02:53:09.902Z,2.50
2023-01-28T02:55:45.044Z,2.70
2023-01-28T02:58:21.411Z,2.20
2023-01-28T03:00:56.651Z,2.10
2023-01-28T03:03:32.802Z,2.20
2023-01-28T03:06:07.083Z,1.88
2023-01-28T03:08:57.813Z,2.60
2023-01-28T03:11:46.115Z,2.40
2023-01-28T03:14:33.777Z,3.95
2023-01-28T03:17:26.555Z,4.38
2023-01-28T03:20:13.728Z,3.20
2023-01-28T03:23:07.494Z,3.33
2023-01-28T03:25:57.297Z,2.97
2023-01-28T03:28:45.441Z,2.53
2023-01-28T03:31:34.432Z,2.65
2023-01-28T03:34:24.914Z,2.88
2023-01-28T03:36:55.685Z,3.13
2023-01-28T03:40:04.957Z,3.00
2023-01-28T03:42:34.896Z,3.30
2023-01-28T03:45:12.539Z,3.60
2023-01-28T03:47:42.101Z,4.25
2023-01-28T03:50:14.876Z,4.35
2023-01-28T03:53:13.541Z,4.10
2023-01-28T03:55:50.669Z,4.40
2023-01-28T03:58:20.732Z,4.38
2023-01-28T04:00:50.103Z,4.53
2023-01-28T04:03:21.122Z,4.40
2023-01-28T04:06:14.606Z,3.97
2023-01-28T04:08:59.709Z,3.92
2023-01-28T04:11:41.942Z,3.13
2023-01-28T04:14:12.380Z,4.10
2023-01-28T04:16:46.214Z,3.42
2023-01-28T04:19:15.399Z,3.90
2023-01-28T04:21:46.803Z,3.28
2023-01-28T04:24:16.828Z,3.30
2023-01-28T04:26:46.121Z,2.90
2023-01-28T04:29:16.477Z,3.77
2023-01-28T04:31:46.336Z,3.58
2023-01-28T04:34:23.770Z,3.30
2023-01-28T04:37:17.414Z,2.72
2023-01-28T04:40:05.702Z,3.00
2023-01-28T04:43:04.172Z,2.95
2023-01-28T04:45:49.995Z,2.70
2023-01-28T04:48:27.698Z,2.78
2023-01-28T04:51:15.419Z,2.67
2023-01-28T04:54:04.613Z,2.40
2023-01-28T04:56:36.111Z,2.00
2023-01-28T04:59:06.521Z,1.90
2023-01-28T05:01:36.536Z,2.00
2023-01-28T05:04:06.556Z,1.50
2023-01-28T05:06:39.040Z,2.10
2023-01-28T05:09:16.414Z,2.28
2023-01-28T05:11:46.176Z,2.08
2023-01-28T05:14:16.809Z,2.15
2023-01-28T05:16:51.123Z,2.03
2023-01-28T05:19:21.070Z,1.50
2023-01-28T05:21:50.069Z,2.00
2023-01-28T05:24:42.580Z,2.17
2023-01-28T05:27:11.669Z,1.90
2023-01-28T05:29:40.637Z,2.00
2023-01-28T05:32:10.173Z,2.40
2023-01-28T05:34:39.277Z,2.30
2023-01-28T05:37:13.415Z,2.17
2023-01-28T05:39:43.938Z,2.03
2023-01-28T05:42:13.021Z,1.75
2023-01-28T05:44:47.018Z,2.00
2023-01-28T05:47:25.543Z,1.63
2023-01-28T05:50:16.004Z,1.65
2023-01-28T05:52:46.699Z,1.17
2023-01-28T05:55:28.128Z,1.77
2023-01-28T05:57:57.163Z,1.70
2023-01-28T06:00:28.679Z,1.20
2023-01-28T06:02:57.959Z,1.30
2023-01-28T06:05:27.393Z,1.10
2023-01-28T06:07:56.576Z,1.25
2023-01-28T06:10:27.193Z,1.38
2023-01-28T06:12:57.383Z,1.50
2023-01-28T06:15:35.051Z,87.90
2023-01-28T06:18:36.616Z,20.10
2023-01-28T06:21:06.388Z,9.00
2023-01-28T06:23:35.492Z,9.35
2023-01-28T06:26:07.633Z,6.30
2023-01-28T06:28:38.299Z,4.22
2023-01-28T06:31:07.382Z,4.35
2023-01-28T06:33:36.463Z,4.68
2023-01-28T06:36:06.737Z,2.03
2023-01-28T06:38:35.736Z,2.60
2023-01-28T06:41:06.369Z,1.73
2023-01-28T06:43:35.535Z,1.80
2023-01-28T06:46:04.643Z,1.60
2023-01-28T06:48:33.742Z,1.70
2023-01-28T06:51:02.753Z,1.60
2023-01-28T06:53:31.804Z,2.20
2023-01-28T06:56:00.795Z,2.22
2023-01-28T06:58:31.200Z,3.58
2023-01-28T07:01:00.254Z,12.82
2023-01-28T07:03:29.291Z,10.40
2023-01-28T07:05:58.398Z,10.82
2023-01-28T07:08:27.420Z,9.70
2023-01-28T07:10:56.452Z,5.82
2023-01-28T07:13:25.525Z,4.13
2023-01-28T07:15:55.936Z,3.40
2023-01-28T07:18:24.984Z,2.08
2023-01-28T07:20:54.222Z,6.80
2023-01-28T07:23:23.244Z,4.93
2023-01-28T07:25:52.399Z,5.32
2023-01-28T07:28:22.366Z,5.50
2023-01-28T07:30:53.707Z,5.75
2023-01-28T07:33:24.277Z,4.95
2023-01-28T07:35:53.465Z,4.25
2023-01-28T07:38:22.541Z,4.13
2023-01-28T07:40:51.495Z,3.80
2023-01-28T07:43:20.565Z,3.95
2023-01-28T07:45:51.985Z,3.70
2023-01-28T07:48:20.951Z,3.95
2023-01-28T07:50:51.975Z,2.97
2023-01-28T07:53:21.284Z,2.83
2023-01-28T07:55:50.389Z,2.75
2023-01-28T07:58:19.714Z,2.80
2023-01-28T08:00:48.754Z,2.90
2023-01-28T08:03:17.775Z,3.63
2023-01-28T08:05:48.816Z,3.10
2023-01-28T08:08:19.508Z,2.83
2023-01-28T08:10:48.683Z,2.90
2023-01-28T08:13:19.781Z,2.90
2023-01-28T08:15:57.233Z,2.60
2023-01-28T08:18:26.429Z,2.05
2023-01-28T08:20:57.214Z,2.20
2023-01-28T08:23:29.261Z,1.58
2023-01-28T08:26:00.396Z,1.70
2023-01-28T08:28:29.690Z,1.67
2023-01-28T08:31:01.694Z,1.50
2023-01-28T08:33:31.056Z,1.48
2023-01-28T08:36:00.385Z,1.83
2023-01-28T08:38:30.836Z,1.90
2023-01-28T08:41:00.075Z,1.98
2023-01-28T08:43:29.330Z,1.92
2023-01-28T08:45:58.808Z,2.00
2023-01-28T08:48:27.856Z,2.30
2023-01-28T08:51:00.384Z,2.10
2023-01-28T08:53:30.759Z,1.83
2023-01-28T08:56:00.043Z,2.40
2023-01-28T08:58:29.125Z,2.10
2023-01-28T09:00:58.514Z,2.28
2023-01-28T09:03:27.599Z,1.80
2023-01-28T09:06:02.109Z,2.90
2023-01-28T09:08:32.594Z,2.80
2023-01-28T09:11:02.004Z,2.80
2023-01-28T09:13:31.345Z,2.20
2023-01-28T09:16:00.451Z,2.15
2023-01-28T09:18:30.417Z,2.15
2023-01-28T09:20:59.501Z,1.95
2023-01-28T09:23:28.554Z,2.08
2023-01-28T09:26:03.650Z,2.25
2023-01-28T09:28:33.401Z,2.00
2023-01-28T09:31:04.006Z,2.20
2023-01-28T09:33:34.857Z,1.90
2023-01-28T09:36:05.734Z,1.85
2023-01-28T09:38:36.391Z,2.53
2023-01-28T09:41:20.747Z,3.08
2023-01-28T09:44:01.743Z,2.05
2023-01-28T09:46:34.313Z,2.40
2023-01-28T09:49:11.030Z,2.33
2023-01-28T09:51:44.155Z,1.92
2023-01-28T09:54:22.523Z,2.03
2023-01-28T09:56:59.514Z,4.05
2023-01-28T09:59:29.590Z,13.82
2023-01-28T10:02:02.748Z,6.35
2023-01-28T10:04:47.992Z,4.55
2023-01-28T10:07:29.762Z,3.85
2023-01-28T10:10:04.314Z,4.10
2023-01-28T10:13:00.841Z,2.92
2023-01-28T10:15:55.670Z,2.20
2023-01-28T10:18:33.287Z,2.20
2023-01-28T10:21:08.947Z,1.10
2023-01-28T10:23:48.382Z,1.45
2023-01-28T10:26:24.436Z,1.35
2023-01-28T10:29:04.252Z,1.40
2023-01-28T10:31:38.895Z,1.52
2023-01-28T10:34:08.105Z,1.30
2023-01-28T10:36:37.294Z,1.70
2023-01-28T10:39:09.117Z,1.40
2023-01-28T10:41:42.499Z,1.10
2023-01-28T10:44:28.403Z,1.60
2023-01-28T10:47:01.252Z,1.13
2023-01-28T10:49:33.145Z,1.02
2023-01-28T10:52:12.683Z,0.95
2023-01-28T10:54:41.876Z,1.38
2023-01-28T10:57:15.202Z,1.73
2023-01-28T10:59:46.312Z,2.13
2023-01-28T11:02:37.286Z,2.42
2023-01-28T11:05:16.345Z,3.20
2023-01-28T11:07:45.508Z,2.65
2023-01-28T11:10:27.343Z,2.95
2023-01-28T11:13:00.860Z,2.33
2023-01-28T11:15:31.925Z,2.78
2023-01-28T11:18:04.079Z,3.10
2023-01-28T11:20:38.717Z,5.88
2023-01-28T11:23:07.875Z,3.67
2023-01-28T11:25:38.524Z,4.55
2023-01-28T11:28:16.976Z,3.58
2023-01-28T11:30:53.496Z,4.40
2023-01-28T11:33:26.129Z,4.35
2023-01-28T11:35:56.521Z,4.90
2023-01-28T11:38:27.308Z,4.50
2023-01-28T11:40:57.659Z,5.75
2023-01-28T11:43:28.368Z,5.30
2023-01-28T11:46:07.623Z,6.10
2023-01-28T11:48:44.414Z,7.15
2023-01-28T11:51:25.276Z,4.70
2023-01-28T11:54:06.973Z,3.67
2023-01-28T11:56:57.821Z,1.70
2023-01-28T11:59:42.748Z,1.92
2023-01-28T12:02:27.781Z,1.60
2023-01-28T12:05:08.857Z,1.50
2023-01-28T12:07:46.735Z,3.15
2023-01-28T12:10:25.507Z,1.63
2023-01-28T12:13:16.688Z,1.80
2023-01-28T12:16:15.160Z,1.05
2023-01-28T12:19:29.437Z,1.60
2023-01-28T12:22:24.811Z,1.58
2023-01-28T12:25:13.083Z,1.42
2023-01-28T12:27:52.328Z,1.77
2023-01-28T12:30:32.740Z,2.10
2023-01-28T12:33:24.983Z,1.90
2023-01-28T12:36:07.394Z,3.40
2023-01-28T12:38:48.285Z,4.65
2023-01-28T12:41:20.105Z,4.50
2023-01-28T12:43:57.666Z,4.30
2023-01-28T12:46:39.118Z,4.97
2023-01-28T12:51:52.371Z,5.80
2023-01-28T12:54:30.135Z,6.60
2023-01-28T12:57:00.309Z,7.38
2023-01-28T12:59:33.825Z,7.15
2023-01-28T13:02:18.633Z,7.22
2023-01-28T13:04:53.009Z,6.75
2023-01-28T13:07:28.152Z,6.60
2023-01-28T13:10:04.910Z,4.50
2023-01-28T13:12:34.813Z,3.58
2023-01-28T13:15:04.170Z,3.92
2023-01-28T13:17:33.997Z,3.00
2023-01-28T13:20:14.653Z,2.70
2023-01-28T13:22:46.646Z,8.23
2023-01-28T13:25:23.962Z,6.63
2023-01-28T13:27:58.013Z,4.88
2023-01-28T13:30:29.835Z,4.55
2023-01-28T13:33:01.248Z,9.70
2023-01-28T13:35:34.295Z,11.48
2023-01-28T13:38:10.368Z,13.07
2023-01-28T13:40:43.061Z,7.40
2023-01-28T13:43:37.595Z,6.70
2023-01-28T13:46:09.533Z,6.03
2023-01-28T13:48:45.670Z,6.20
2023-01-28T13:51:21.576Z,3.00
2023-01-28T13:53:58.259Z,2.60
2023-01-28T13:56:33.029Z,2.20
2023-01-28T13:59:33.455Z,2.33
2023-01-28T14:02:35.024Z,2.17
2023-01-28T14:05:44.738Z,2.30
2023-01-28T14:08:40.054Z,2.20
2023-01-28T14:11:31.549Z,2.25
2023-01-28T14:14:39.206Z,3.88
2023-01-28T14:17:18.695Z,1.60
2023-01-28T14:19:48.420Z,1.65
2023-01-28T14:22:20.519Z,1.80
2023-01-28T14:24:50.035Z,2.90
2023-01-28T14:27:27.145Z,3.63
2023-01-28T14:30:09.618Z,3.97
2023-01-28T14:32:46.046Z,2.30
2023-01-28T14:35:20.600Z,3.20
2023-01-28T14:37:49.728Z,1.80
2023-01-28T14:40:19.620Z,1.67
2023-01-28T14:42:52.012Z,2.15
2023-01-28T14:45:35.779Z,2.90
2023-01-28T14:48:19.024Z,2.60
2023-01-28T14:51:09.773Z,2.40
2023-01-28T14:54:06.147Z,2.00
2023-01-28T14:56:56.351Z,2.03
2023-01-28T14:59:31.507Z,1.60
2023-01-28T15:02:02.692Z,1.70
2023-01-28T15:04:35.275Z,1.83
2023-01-28T15:07:18.205Z,2.60
2023-01-28T15:09:47.843Z,1.80
2023-01-28T15:12:18.655Z,2.10
2023-01-28T15:14:49.483Z,2.53
2023-01-28T15:17:26.657Z,2.70
2023-01-28T15:19:58.124Z,2.53
2023-01-28T15:22:29.730Z,2.75
2023-01-28T15:24:58.996Z,2.38
2023-01-28T15:27:31.092Z,2.40
2023-01-28T15:30:02.729Z,2.28
2023-01-28T15:32:33.051Z,2.40
2023-01-28T15:35:02.462Z,3.35
2023-01-28T15:37:31.614Z,3.42
2023-01-28T15:40:07.123Z,4.10
2023-01-28T15:42:38.623Z,4.57
2023-01-28T15:45:17.473Z,5.13
2023-01-28T15:47:47.992Z,4.53
2023-01-28T15:50:20.395Z,4.70
2023-01-28T15:52:50.929Z,16.83
2023-01-28T15:55:36.642Z,9.07
2023-01-28T15:58:28.116Z,8.23
2023-01-28T16:03:47.445Z,11.38
2023-01-28T16:06:19.912Z,10.30
2023-01-28T16:08:54.511Z,10.77
2023-01-28T16:11:25.990Z,12.98
2023-01-28T16:13:56.176Z,11.77
2023-01-28T16:16:32.196Z,10.98
2023-01-28T16:19:02.027Z,11.15
2023-01-28T16:21:34.572Z,10.32
2023-01-28T16:24:05.949Z,11.52
2023-01-28T16:26:37.425Z,10.65
2023-01-28T16:29:15.531Z,10.30
2023-01-28T16:31:46.053Z,11.30
2023-01-28T16:34:15.116Z,12.82
2023-01-28T16:36:44.103Z,12.23
2023-01-28T16:39:13.121Z,15.65
2023-01-28T16:41:44.119Z,19.45
2023-01-28T16:44:15.286Z,25.38
2023-01-28T16:46:46.149Z,21.77
2023-01-28T16:49:15.198Z,19.52
2023-01-28T16:51:44.842Z,14.63
2023-01-28T16:54:16.390Z,14.38
2023-01-28T16:56:46.812Z,14.45
2023-01-28T16:59:16.898Z,15.65
2023-01-28T17:01:47.826Z,12.38
2023-01-28T17:04:16.991Z,12.60
2023-01-28T17:06:46.696Z,14.35
2023-01-28T17:09:16.290Z,17.67
2023-01-28T17:11:45.381Z,12.10
2023-01-28T17:14:14.582Z,11.30
2023-01-28T17:16:43.662Z,12.20
2023-01-28T17:19:14.259Z,17.65
2023-01-28T17:21:43.318Z,19.38
2023-01-28T17:24:12.471Z,16.42
2023-01-28T17:26:41.638Z,16.40
2023-01-28T17:29:10.664Z,19.80
2023-01-28T17:31:39.806Z,17.50
2023-01-28T17:34:11.442Z,14.77
2023-01-28T17:36:42.060Z,13.27
2023-01-28T17:39:14.667Z,12.48
2023-01-28T17:41:44.150Z,12.23
2023-01-28T17:44:15.215Z,11.93
2023-01-28T17:46:44.308Z,14.68
2023-01-28T17:49:14.355Z,18.65
2023-01-28T17:51:44.936Z,17.00
2023-01-28T17:54:14.062Z,20.08
2023-01-28T17:56:43.210Z,23.38
2023-01-28T17:59:16.603Z,42.47
2023-01-28T18:01:48.152Z,33.90
2023-01-28T18:04:17.409Z,40.67
2023-01-28T18:06:49.316Z,23.08
2023-01-28T18:09:18.665Z,27.00
2023-01-28T18:11:47.724Z,27.02
2023-01-28T18:14:16.955Z,25.77
2023-01-28T18:16:46.001Z,35.78
2023-01-28T18:19:15.215Z,24.02
2023-01-28T18:21:52.755Z,22.33
2023-01-28T18:24:25.559Z,20.10
2023-01-28T18:27:00.012Z,20.92
2023-01-28T18:29:30.537Z,42.60
2023-01-28T18:32:00.690Z,17.42
2023-01-28T18:34:31.683Z,21.45
2023-01-28T18:37:01.281Z,18.42
2023-01-28T18:39:33.988Z,26.38
2023-01-28T18:42:08.939Z,19.02
2023-01-28T18:44:38.789Z,27.27
2023-01-28T18:47:08.118Z,14.52
2023-01-28T18:49:37.163Z,14.75
2023-01-28T18:52:06.543Z,11.23
2023-01-28T18:54:37.434Z,7.78
2023-01-28T18:57:06.856Z,7.55
2023-01-28T18:59:35.871Z,7.63
2023-01-28T19:02:05.020Z,7.90
2023-01-28T19:04:34.115Z,8.82
2023-01-28T19:07:07.144Z,10.48
2023-01-28T19:09:38.564Z,12.73
2023-01-28T19:12:07.762Z,10.23
2023-01-28T19:14:36.957Z,13.05
2023-01-28T19:17:06.163Z,14.80
2023-01-28T19:19:35.285Z,12.55
2023-01-28T19:22:04.388Z,18.13
2023-01-28T19:24:33.630Z,10.00
2023-01-28T19:27:04.546Z,10.10
2023-01-28T19:29:36.031Z,12.43
2023-01-28T19:32:05.696Z,14.85
2023-01-28T19:34:34.883Z,16.75
2023-01-28T19:37:03.987Z,16.50
2023-01-28T19:39:33.075Z,16.60
2023-01-28T19:42:03.584Z,21.65
2023-01-28T19:44:32.947Z,15.25
2023-01-28T19:47:05.910Z,7.43
2023-01-28T19:49:35.238Z,5.95
2023-01-28T19:52:04.528Z,5.38
2023-01-28T19:54:33.663Z,4.95
2023-01-28T19:57:04.192Z,4.53
2023-01-28T19:59:33.267Z,4.35
2023-01-28T20:02:02.332Z,6.68
2023-01-28T20:04:31.519Z,10.10
2023-01-28T20:07:00.538Z,25.15
2023-01-28T20:09:29.532Z,16.85
2023-01-28T20:11:58.519Z,21.63
2023-01-28T20:14:29.143Z,17.17
2023-01-28T20:16:58.673Z,15.20
2023-01-28T20:19:28.404Z,8.93
2023-01-28T20:21:58.916Z,9.13
2023-01-28T20:24:28.105Z,14.20
2023-01-28T20:26:57.289Z,18.83
2023-01-28T20:29:26.367Z,26.02
2023-01-28T20:32:14.693Z,32.42
2023-01-28T20:34:45.608Z,14.52
2023-01-28T20:37:14.676Z,12.23
2023-01-28T20:39:43.769Z,7.68
2023-01-28T20:42:13.443Z,6.32
2023-01-28T20:44:42.699Z,6.10
2023-01-28T20:47:13.232Z,6.20
2023-01-28T20:49:42.313Z,13.70
2023-01-28T20:52:11.374Z,14.20
2023-01-28T20:54:40.701Z,26.23
2023-01-28T20:57:10.037Z,23.60
2023-01-28T20:59:39.166Z,24.20
2023-01-28T21:02:09.792Z,28.52
2023-01-28T21:04:40.428Z,40.67
2023-01-28T21:07:12.721Z,51.00
2023-01-28T21:09:41.803Z,55.03
2023-01-28T21:12:11.027Z,42.33
2023-01-28T21:14:40.107Z,27.38
2023-01-28T21:17:09.281Z,28.98
2023-01-28T21:19:39.820Z,20.60
2023-01-28T21:22:09.312Z,19.88
2023-01-28T21:24:38.566Z,13.23
2023-01-28T21:27:08.187Z,11.25
2023-01-28T21:29:37.387Z,10.05
2023-01-28T21:32:06.911Z,9.13
2023-01-28T21:34:36.197Z,9.90
2023-01-28T21:37:06.767Z,10.68
2023-01-28T21:39:36.087Z,12.07
2023-01-28T21:42:05.649Z,11.35
2023-01-28T21:44:34.786Z,9.77
2023-01-28T21:47:03.837Z,10.38
2023-01-28T21:49:32.980Z,8.65
2023-01-28T21:52:02.374Z,8.13
2023-01-28T21:54:32.985Z,7.53
2023-01-28T21:57:02.260Z,7.32
2023-01-28T21:59:30.863Z,7.57
2023-01-28T22:02:01.490Z,7.28
2023-01-28T22:04:33.203Z,7.45
2023-01-28T22:07:04.026Z,6.93
2023-01-28T22:09:35.064Z,7.07
2023-01-28T22:12:07.120Z,7.40
2023-01-28T22:14:36.633Z,7.93
2023-01-28T22:17:07.423Z,6.90
2023-01-28T22:19:36.899Z,7.75
2023-01-28T22:22:06.616Z,7.13
2023-01-28T22:24:37.129Z,7.00
2023-01-28T22:27:06.180Z,6.68
2023-01-28T22:29:35.294Z,6.05
2023-01-28T22:32:05.093Z,6.60
2023-01-28T22:34:34.219Z,6.07
2023-01-28T22:37:03.269Z,6.30
2023-01-28T22:39:32.241Z,6.20
2023-01-28T22:42:02.656Z,7.22
2023-01-28T22:44:31.741Z,7.63
2023-01-28T22:47:00.830Z,7.35
2023-01-28T22:49:29.858Z,7.78
2023-01-28T22:51:58.974Z,7.90
2023-01-28T22:54:28.143Z,8.20
2023-01-28T22:56:57.245Z,7.88
2023-01-28T22:59:27.724Z,8.68
2023-01-28T23:01:56.734Z,8.98
2023-01-28T23:04:25.823Z,9.38
2023-01-28T23:06:54.855Z,8.73
2023-01-28T23:09:23.837Z,7.28
2023-01-28T23:11:52.864Z,7.28
2023-01-28T23:14:39.357Z,7.13
2023-01-28T23:17:29.926Z,8.05
2023-01-28T23:20:16.863Z,8.52
2023-01-28T23:23:03.606Z,9.95
2023-01-28T23:25:32.688Z,9.68
2023-01-28T23:28:02.117Z,8.18
2023-01-28T23:30:31.431Z,6.90
2023-01-28T23:33:02.140Z,6.38
2023-01-28T23:35:32.799Z,5.93
2023-01-28T23:38:01.898Z,6.20
2023-01-28T23:40:30.889Z,5.68
2023-01-28T23:42:59.986Z,5.72
2023-01-28T23:45:28.987Z,5.57
2023-01-28T23:47:58.144Z,5.22
2023-01-28T23:50:28.620Z,5.20
2023-01-28T23:53:01.321Z,4.85
2023-01-28T23:55:30.621Z,5.15
2023-01-28T23:57:59.760Z,4.70
